sensor_id;sensor_type;location;lat;lon;timestamp;P1;durP1;ratioP1;P2;durP2;ratioP2
18340;SDS011;9296;48.084;16.352;2022-07-29T00:02:08;6.80;;;6.13;;
18340;SDS011;9296;48.084;16.352;2022-07-29T00:04:37;7.82;;;6.55;;
18340;SDS011;9296;48.084;16.352;2022-07-29T00:07:04;7.00;;;6.40;;
18340;SDS011;9296;48.084;16.352;2022-07-29T00:09:32;7.20;;;6.40;;
18340;SDS011;9296;48.084;16.352;2022-07-29T00:12:01;7.60;;;6.80;;
18340;SDS011;9296;48.084;16.352;2022-07-29T00:14:28;7.68;;;6.88;;
18340;SDS011;9296;48.084;16.352;2022-07-29T00:16:55;8.17;;;6.50;;
18340;SDS011;9296;48.084;16.352;2022-07-29T00:22:23;7.82;;;7.03;;
18340;SDS011;9296;48.084;16.352;2022-07-29T00:24:51;7.82;;;6.82;;
18340;SDS011;9296;48.084;16.352;2022-07-29T00:27:19;8.57;;;7.20;;
18340;SDS011;9296;48.084;16.352;2022-07-29T00:29:47;8.18;;;7.35;;
18340;SDS011;9296;48.084;16.352;2022-07-29T00:32:14;7.65;;;6.85;;
18340;SDS011;9296;48.084;16.352;2022-07-29T00:34:42;9.48;;;6.93;;
18340;SDS011;9296;48.084;16.352;2022-07-29T00:37:27;9.40;;;7.00;;
18340;SDS011;9296;48.084;16.352;2022-07-29T00:39:55;10.35;;;7.03;;
18340;SDS011;9296;48.084;16.352;2022-07-29T00:42:24;8.27;;;6.60;;
18340;SDS011;9296;48.084;16.352;2022-07-29T00:44:51;8.27;;;7.10;;
18340;SDS011;9296;48.084;16.352;2022-07-29T00:47:18;8.93;;;7.20;;
18340;SDS011;9296;48.084;16.352;2022-07-29T00:52:49;7.97;;;6.90;;
18340;SDS011;9296;48.084;16.352;2022-07-29T00:55:17;7.85;;;6.80;;
18340;SDS011;9296;48.084;16.352;2022-07-29T00:57:46;9.02;;;6.80;;
18340;SDS011;9296;48.084;16.352;2022-07-29T01:00:14;7.97;;;7.18;;
18340;SDS011;9296;48.084;16.352;2022-07-29T01:02:42;7.63;;;6.80;;
18340;SDS011;9296;48.084;16.352;2022-07-29T01:08:13;7.70;;;6.75;;
18340;SDS011;9296;48.084;16.352;2022-07-29T01:10:41;9.57;;;7.07;;
18340;SDS011;9296;48.084;16.352;2022-07-29T01:13:11;7.72;;;6.70;;
18340;SDS011;9296;48.084;16.352;2022-07-29T01:15:40;7.80;;;7.00;;
18340;SDS011;9296;48.084;16.352;2022-07-29T01:18:10;8.87;;;6.80;;
18340;SDS011;9296;48.084;16.352;2022-07-29T01:20:43;9.43;;;7.25;;
18340;SDS011;9296;48.084;16.352;2022-07-29T01:23:21;8.40;;;6.72;;
18340;SDS011;9296;48.084;16.352;2022-07-29T01:25:56;7.90;;;6.28;;
18340;SDS011;9296;48.084;16.352;2022-07-29T01:31:15;10.18;;;6.72;;
18340;SDS011;9296;48.084;16.352;2022-07-29T01:33:43;8.77;;;6.80;;
18340;SDS011;9296;48.084;16.352;2022-07-29T01:36:16;8.10;;;6.50;;
18340;SDS011;9296;48.084;16.352;2022-07-29T01:38:47;7.80;;;7.00;;
18340;SDS011;9296;48.084;16.352;2022-07-29T01:41:17;8.97;;;7.33;;
18340;SDS011;9296;48.084;16.352;2022-07-29T01:43:48;9.75;;;7.28;;
18340;SDS011;9296;48.084;16.352;2022-07-29T01:46:19;9.02;;;7.68;;
18340;SDS011;9296;48.084;16.352;2022-07-29T01:48:49;9.88;;;8.57;;
18340;SDS011;9296;48.084;16.352;2022-07-29T01:54:05;10.18;;;7.90;;
18340;SDS011;9296;48.084;16.352;2022-07-29T01:56:34;9.02;;;8.07;;
18340;SDS011;9296;48.084;16.352;2022-07-29T01:59:02;8.93;;;7.53;;
18340;SDS011;9296;48.084;16.352;2022-07-29T02:01:32;9.10;;;7.63;;
18340;SDS011;9296;48.084;16.352;2022-07-29T02:04:00;9.70;;;7.90;;
18340;SDS011;9296;48.084;16.352;2022-07-29T02:06:29;8.75;;;7.57;;
18340;SDS011;9296;48.084;16.352;2022-07-29T02:08:56;9.45;;;7.22;;
18340;SDS011;9296;48.084;16.352;2022-07-29T02:11:24;8.60;;;7.60;;
18340;SDS011;9296;48.084;16.352;2022-07-29T02:13:52;8.23;;;7.28;;
18340;SDS011;9296;48.084;16.352;2022-07-29T02:16:21;8.82;;;7.65;;
18340;SDS011;9296;48.084;16.352;2022-07-29T02:18:52;9.85;;;7.78;;
18340;SDS011;9296;48.084;16.352;2022-07-29T02:21:21;10.57;;;7.90;;
18340;SDS011;9296;48.084;16.352;2022-07-29T02:23:49;9.30;;;7.53;;
18340;SDS011;9296;48.084;16.352;2022-07-29T02:26:18;8.18;;;6.72;;
18340;SDS011;9296;48.084;16.352;2022-07-29T02:28:46;9.88;;;7.53;;
18340;SDS011;9296;48.084;16.352;2022-07-29T02:31:14;7.75;;;6.95;;
18340;SDS011;9296;48.084;16.352;2022-07-29T02:33:43;7.53;;;6.68;;
18340;SDS011;9296;48.084;16.352;2022-07-29T02:36:12;7.95;;;6.80;;
18340;SDS011;9296;48.084;16.352;2022-07-29T02:38:40;8.73;;;6.70;;
18340;SDS011;9296;48.084;16.352;2022-07-29T02:41:19;9.30;;;6.57;;
18340;SDS011;9296;48.084;16.352;2022-07-29T02:43:47;9.55;;;7.03;;
18340;SDS011;9296;48.084;16.352;2022-07-29T02:46:16;7.75;;;6.93;;
18340;SDS011;9296;48.084;16.352;2022-07-29T02:48:48;11.75;;;7.95;;
18340;SDS011;9296;48.084;16.352;2022-07-29T02:51:17;8.85;;;7.03;;
18340;SDS011;9296;48.084;16.352;2022-07-29T02:53:46;11.10;;;7.35;;
18340;SDS011;9296;48.084;16.352;2022-07-29T02:56:14;7.15;;;6.45;;
18340;SDS011;9296;48.084;16.352;2022-07-29T02:58:45;7.63;;;6.90;;
18340;SDS011;9296;48.084;16.352;2022-07-29T03:01:15;9.60;;;7.28;;
18340;SDS011;9296;48.084;16.352;2022-07-29T03:03:43;8.30;;;7.18;;
18340;SDS011;9296;48.084;16.352;2022-07-29T03:09:17;8.18;;;7.38;;
18340;SDS011;9296;48.084;16.352;2022-07-29T03:11:44;9.98;;;7.97;;
18340;SDS011;9296;48.084;16.352;2022-07-29T03:14:12;9.30;;;7.90;;
18340;SDS011;9296;48.084;16.352;2022-07-29T03:16:40;10.10;;;8.00;;
18340;SDS011;9296;48.084;16.352;2022-07-29T03:19:07;8.93;;;8.02;;
18340;SDS011;9296;48.084;16.352;2022-07-29T03:21:54;9.00;;;7.82;;
18340;SDS011;9296;48.084;16.352;2022-07-29T03:24:27;8.27;;;7.47;;
18340;SDS011;9296;48.084;16.352;2022-07-29T03:26:55;9.40;;;8.50;;
18340;SDS011;9296;48.084;16.352;2022-07-29T03:29:23;8.15;;;7.40;;
18340;SDS011;9296;48.084;16.352;2022-07-29T03:31:51;8.85;;;7.85;;
18340;SDS011;9296;48.084;16.352;2022-07-29T03:34:18;10.43;;;7.22;;
18340;SDS011;9296;48.084;16.352;2022-07-29T03:37:03;8.57;;;7.50;;
18340;SDS011;9296;48.084;16.352;2022-07-29T03:39:34;9.48;;;7.47;;
18340;SDS011;9296;48.084;16.352;2022-07-29T03:42:02;9.18;;;7.35;;
18340;SDS011;9296;48.084;16.352;2022-07-29T03:44:29;8.98;;;7.97;;
18340;SDS011;9296;48.084;16.352;2022-07-29T03:46:57;9.30;;;8.02;;
18340;SDS011;9296;48.084;16.352;2022-07-29T03:49:26;10.77;;;7.20;;
18340;SDS011;9296;48.084;16.352;2022-07-29T03:52:13;8.52;;;7.50;;
18340;SDS011;9296;48.084;16.352;2022-07-29T03:54:41;8.63;;;7.70;;
18340;SDS011;9296;48.084;16.352;2022-07-29T03:57:09;8.68;;;7.30;;
18340;SDS011;9296;48.084;16.352;2022-07-29T03:59:37;8.13;;;7.32;;
18340;SDS011;9296;48.084;16.352;2022-07-29T04:02:05;8.93;;;7.20;;
18340;SDS011;9296;48.084;16.352;2022-07-29T04:04:35;7.72;;;6.93;;
18340;SDS011;9296;48.084;16.352;2022-07-29T04:07:02;8.48;;;7.68;;
18340;SDS011;9296;48.084;16.352;2022-07-29T04:09:30;9.18;;;7.80;;
18340;SDS011;9296;48.084;16.352;2022-07-29T04:11:58;8.27;;;7.25;;
18340;SDS011;9296;48.084;16.352;2022-07-29T04:14:25;8.10;;;6.55;;
18340;SDS011;9296;48.084;16.352;2022-07-29T04:16:53;7.88;;;7.00;;
18340;SDS011;9296;48.084;16.352;2022-07-29T04:19:20;8.48;;;7.15;;
18340;SDS011;9296;48.084;16.352;2022-07-29T04:21:47;8.48;;;7.20;;
18340;SDS011;9296;48.084;16.352;2022-07-29T04:24:14;9.70;;;7.57;;
18340;SDS011;9296;48.084;16.352;2022-07-29T04:26:42;8.48;;;7.65;;
18340;SDS011;9296;48.084;16.352;2022-07-29T04:29:10;10.93;;;8.25;;
18340;SDS011;9296;48.084;16.352;2022-07-29T04:31:39;12.63;;;8.13;;
18340;SDS011;9296;48.084;16.352;2022-07-29T04:34:06;10.80;;;8.73;;
18340;SDS011;9296;48.084;16.352;2022-07-29T04:36:34;8.48;;;7.43;;
18340;SDS011;9296;48.084;16.352;2022-07-29T04:39:01;9.70;;;8.20;;
18340;SDS011;9296;48.084;16.352;2022-07-29T04:41:28;9.80;;;7.40;;
18340;SDS011;9296;48.084;16.352;2022-07-29T04:43:55;8.30;;;7.50;;
18340;SDS011;9296;48.084;16.352;2022-07-29T04:46:27;9.70;;;7.25;;
18340;SDS011;9296;48.084;16.352;2022-07-29T04:48:54;9.10;;;8.20;;
18340;SDS011;9296;48.084;16.352;2022-07-29T04:51:21;12.23;;;8.35;;
18340;SDS011;9296;48.084;16.352;2022-07-29T04:53:48;9.77;;;8.77;;
18340;SDS011;9296;48.084;16.352;2022-07-29T04:56:16;9.23;;;8.00;;
18340;SDS011;9296;48.084;16.352;2022-07-29T04:58:43;10.27;;;8.02;;
18340;SDS011;9296;48.084;16.352;2022-07-29T05:01:10;9.57;;;8.43;;
18340;SDS011;9296;48.084;16.352;2022-07-29T05:03:38;11.93;;;8.77;;
18340;SDS011;9296;48.084;16.352;2022-07-29T05:06:24;13.10;;;9.02;;
18340;SDS011;9296;48.084;16.352;2022-07-29T05:08:51;12.38;;;9.23;;
18340;SDS011;9296;48.084;16.352;2022-07-29T05:11:18;11.68;;;9.25;;
18340;SDS011;9296;48.084;16.352;2022-07-29T05:13:45;11.15;;;9.40;;
18340;SDS011;9296;48.084;16.352;2022-07-29T05:16:12;11.50;;;9.38;;
18340;SDS011;9296;48.084;16.352;2022-07-29T05:18:41;13.32;;;9.65;;
18340;SDS011;9296;48.084;16.352;2022-07-29T05:27:13;12.45;;;8.73;;
18340;SDS011;9296;48.084;16.352;2022-07-29T05:29:40;10.07;;;8.48;;
18340;SDS011;9296;48.084;16.352;2022-07-29T05:32:07;9.65;;;8.50;;
18340;SDS011;9296;48.084;16.352;2022-07-29T05:34:36;9.75;;;8.75;;
18340;SDS011;9296;48.084;16.352;2022-07-29T05:37:03;8.93;;;8.02;;
18340;SDS011;9296;48.084;16.352;2022-07-29T05:39:30;9.48;;;7.60;;
18340;SDS011;9296;48.084;16.352;2022-07-29T05:41:58;8.57;;;7.60;;
18340;SDS011;9296;48.084;16.352;2022-07-29T05:44:25;9.35;;;7.28;;
18340;SDS011;9296;48.084;16.352;2022-07-29T05:46:52;10.35;;;7.45;;
18340;SDS011;9296;48.084;16.352;2022-07-29T05:49:19;7.45;;;6.72;;
18340;SDS011;9296;48.084;16.352;2022-07-29T05:51:48;9.75;;;6.88;;
18340;SDS011;9296;48.084;16.352;2022-07-29T05:54:15;7.90;;;7.13;;
18340;SDS011;9296;48.084;16.352;2022-07-29T05:56:42;9.70;;;6.80;;
18340;SDS011;9296;48.084;16.352;2022-07-29T05:59:10;8.43;;;7.50;;
18340;SDS011;9296;48.084;16.352;2022-07-29T06:01:37;9.82;;;7.05;;
18340;SDS011;9296;48.084;16.352;2022-07-29T06:04:05;7.78;;;6.88;;
18340;SDS011;9296;48.084;16.352;2022-07-29T06:09:20;10.77;;;7.32;;
18340;SDS011;9296;48.084;16.352;2022-07-29T06:11:47;6.93;;;6.22;;
18340;SDS011;9296;48.084;16.352;2022-07-29T06:14:15;8.18;;;6.35;;
18340;SDS011;9296;48.084;16.352;2022-07-29T07:18:19;7.70;;;6.90;;
18340;SDS011;9296;48.084;16.352;2022-07-29T07:20:46;7.95;;;6.60;;
18340;SDS011;9296;48.084;16.352;2022-07-29T07:23:13;7.43;;;6.53;;
18340;SDS011;9296;48.084;16.352;2022-07-29T07:25:41;8.60;;;5.90;;
18340;SDS011;9296;48.084;16.352;2022-07-29T07:28:08;8.80;;;6.05;;
18340;SDS011;9296;48.084;16.352;2022-07-29T07:30:35;7.63;;;6.20;;
18340;SDS011;9296;48.084;16.352;2022-07-29T07:33:02;6.78;;;6.15;;
18340;SDS011;9296;48.084;16.352;2022-07-29T07:35:31;6.43;;;5.72;;
18340;SDS011;9296;48.084;16.352;2022-07-29T07:37:58;7.63;;;6.13;;
18340;SDS011;9296;48.084;16.352;2022-07-29T07:40:25;7.75;;;5.57;;
18340;SDS011;9296;48.084;16.352;2022-07-29T07:42:53;6.90;;;6.20;;
18340;SDS011;9296;48.084;16.352;2022-07-29T07:45:20;7.13;;;5.95;;
18340;SDS011;9296;48.084;16.352;2022-07-29T07:47:47;8.32;;;6.43;;
18340;SDS011;9296;48.084;16.352;2022-07-29T07:50:14;6.05;;;5.30;;
18340;SDS011;9296;48.084;16.352;2022-07-29T07:52:47;5.93;;;5.40;;
18340;SDS011;9296;48.084;16.352;2022-07-29T07:55:15;7.57;;;5.50;;
18340;SDS011;9296;48.084;16.352;2022-07-29T07:57:42;6.80;;;5.47;;
18340;SDS011;9296;48.084;16.352;2022-07-29T08:00:10;7.03;;;5.70;;
18340;SDS011;9296;48.084;16.352;2022-07-29T08:02:38;5.93;;;5.32;;
18340;SDS011;9296;48.084;16.352;2022-07-29T08:05:05;6.70;;;5.30;;
18340;SDS011;9296;48.084;16.352;2022-07-29T08:07:32;6.82;;;5.22;;
18340;SDS011;9296;48.084;16.352;2022-07-29T08:10:02;7.50;;;5.45;;
18340;SDS011;9296;48.084;16.352;2022-07-29T08:12:29;7.82;;;4.75;;
18340;SDS011;9296;48.084;16.352;2022-07-29T08:14:56;5.65;;;5.15;;
18340;SDS011;9296;48.084;16.352;2022-07-29T08:17:23;6.15;;;5.03;;
18340;SDS011;9296;48.084;16.352;2022-07-29T08:19:51;7.15;;;4.95;;
18340;SDS011;9296;48.084;16.352;2022-07-29T08:22:18;6.93;;;5.18;;
18340;SDS011;9296;48.084;16.352;2022-07-29T08:24:45;5.50;;;5.00;;
18340;SDS011;9296;48.084;16.352;2022-07-29T08:27:19;6.68;;;4.95;;
18340;SDS011;9296;48.084;16.352;2022-07-29T08:29:46;5.45;;;4.88;;
18340;SDS011;9296;48.084;16.352;2022-07-29T08:32:13;5.53;;;5.03;;
18340;SDS011;9296;48.084;16.352;2022-07-29T08:34:40;5.50;;;4.68;;
18340;SDS011;9296;48.084;16.352;2022-07-29T08:37:07;8.93;;;5.18;;
18340;SDS011;9296;48.084;16.352;2022-07-29T08:39:34;6.15;;;4.78;;
18340;SDS011;9296;48.084;16.352;2022-07-29T08:42:01;5.55;;;5.05;;
18340;SDS011;9296;48.084;16.352;2022-07-29T08:44:29;4.85;;;4.45;;
18340;SDS011;9296;48.084;16.352;2022-07-29T08:46:57;5.68;;;4.95;;
18340;SDS011;9296;48.084;16.352;2022-07-29T08:49:24;5.55;;;4.65;;
18340;SDS011;9296;48.084;16.352;2022-07-29T08:55:14;5.13;;;4.50;;
18340;SDS011;9296;48.084;16.352;2022-07-29T08:57:42;4.93;;;4.53;;
18340;SDS011;9296;48.084;16.352;2022-07-29T09:00:12;5.45;;;4.18;;
18340;SDS011;9296;48.084;16.352;2022-07-29T09:02:42;6.13;;;5.50;;
18340;SDS011;9296;48.084;16.352;2022-07-29T09:05:13;11.30;;;6.80;;
18340;SDS011;9296;48.084;16.352;2022-07-29T09:11:03;6.13;;;5.00;;
18340;SDS011;9296;48.084;16.352;2022-07-29T09:13:32;5.20;;;4.75;;
18340;SDS011;9296;48.084;16.352;2022-07-29T09:16:00;6.63;;;5.00;;
18340;SDS011;9296;48.084;16.352;2022-07-29T09:18:33;7.80;;;5.22;;
18340;SDS011;9296;48.084;16.352;2022-07-29T09:21:14;6.50;;;4.88;;
18340;SDS011;9296;48.084;16.352;2022-07-29T09:24:04;6.15;;;4.72;;
18340;SDS011;9296;48.084;16.352;2022-07-29T09:26:33;6.90;;;4.90;;
18340;SDS011;9296;48.084;16.352;2022-07-29T09:29:07;6.38;;;4.88;;
18340;SDS011;9296;48.084;16.352;2022-07-29T09:34:05;5.20;;;4.80;;
18340;SDS011;9296;48.084;16.352;2022-07-29T09:42:55;5.40;;;4.60;;
18340;SDS011;9296;48.084;16.352;2022-07-29T09:45:27;5.57;;;4.85;;
18340;SDS011;9296;48.084;16.352;2022-07-29T09:47:57;5.20;;;4.68;;
18340;SDS011;9296;48.084;16.352;2022-07-29T09:50:37;6.28;;;4.68;;
18340;SDS011;9296;48.084;16.352;2022-07-29T09:53:06;6.33;;;5.10;;
18340;SDS011;9296;48.084;16.352;2022-07-29T09:55:45;6.70;;;4.90;;
18340;SDS011;9296;48.084;16.352;2022-07-29T09:58:16;5.72;;;5.00;;
18340;SDS011;9296;48.084;16.352;2022-07-29T10:00:45;5.33;;;4.60;;
18340;SDS011;9296;48.084;16.352;2022-07-29T10:03:14;5.95;;;5.25;;
18340;SDS011;9296;48.084;16.352;2022-07-29T10:05:42;5.93;;;4.70;;
18340;SDS011;9296;48.084;16.352;2022-07-29T10:08:09;5.05;;;4.63;;
18340;SDS011;9296;48.084;16.352;2022-07-29T10:10:38;7.03;;;4.60;;
18340;SDS011;9296;48.084;16.352;2022-07-29T10:13:07;5.47;;;4.45;;
18340;SDS011;9296;48.084;16.352;2022-07-29T10:15:37;6.05;;;4.53;;
18340;SDS011;9296;48.084;16.352;2022-07-29T10:18:05;6.03;;;4.65;;
18340;SDS011;9296;48.084;16.352;2022-07-29T10:20:35;6.10;;;4.68;;
18340;SDS011;9296;48.084;16.352;2022-07-29T10:26:24;5.85;;;4.70;;
18340;SDS011;9296;48.084;16.352;2022-07-29T10:28:51;5.63;;;4.90;;
18340;SDS011;9296;48.084;16.352;2022-07-29T10:31:20;8.20;;;4.50;;
18340;SDS011;9296;48.084;16.352;2022-07-29T10:33:55;5.13;;;4.63;;
18340;SDS011;9296;48.084;16.352;2022-07-29T10:39:47;6.00;;;4.65;;
18340;SDS011;9296;48.084;16.352;2022-07-29T10:42:23;5.75;;;5.05;;
18340;SDS011;9296;48.084;16.352;2022-07-29T10:44:53;4.83;;;4.33;;
18340;SDS011;9296;48.084;16.352;2022-07-29T10:47:22;5.20;;;4.70;;
18340;SDS011;9296;48.084;16.352;2022-07-29T10:49:54;5.10;;;4.60;;
18340;SDS011;9296;48.084;16.352;2022-07-29T10:52:23;5.93;;;4.57;;
18340;SDS011;9296;48.084;16.352;2022-07-29T10:54:54;7.13;;;4.85;;
18340;SDS011;9296;48.084;16.352;2022-07-29T10:57:26;5.15;;;4.57;;
18340;SDS011;9296;48.084;16.352;2022-07-29T11:02:57;6.70;;;4.90;;
18340;SDS011;9296;48.084;16.352;2022-07-29T11:05:26;4.93;;;4.30;;
18340;SDS011;9296;48.084;16.352;2022-07-29T11:10:50;4.88;;;4.40;;
18340;SDS011;9296;48.084;16.352;2022-07-29T11:16:17;6.18;;;4.78;;
18340;SDS011;9296;48.084;16.352;2022-07-29T11:21:53;7.55;;;5.15;;
18340;SDS011;9296;48.084;16.352;2022-07-29T11:24:21;7.80;;;5.07;;
18340;SDS011;9296;48.084;16.352;2022-07-29T11:27:12;6.65;;;5.00;;
18340;SDS011;9296;48.084;16.352;2022-07-29T11:29:47;6.22;;;5.00;;
18340;SDS011;9296;48.084;16.352;2022-07-29T11:32:17;6.43;;;5.10;;
18340;SDS011;9296;48.084;16.352;2022-07-29T11:34:45;7.20;;;5.20;;
18340;SDS011;9296;48.084;16.352;2022-07-29T11:40:08;8.85;;;5.63;;
18340;SDS011;9296;48.084;16.352;2022-07-29T11:42:45;8.13;;;5.40;;
18340;SDS011;9296;48.084;16.352;2022-07-29T11:45:14;6.63;;;5.22;;
18340;SDS011;9296;48.084;16.352;2022-07-29T11:47:47;6.23;;;5.20;;
18340;SDS011;9296;48.084;16.352;2022-07-29T11:50:30;7.65;;;5.30;;
18340;SDS011;9296;48.084;16.352;2022-07-29T11:52:59;6.80;;;5.30;;
18340;SDS011;9296;48.084;16.352;2022-07-29T11:55:26;6.85;;;5.10;;
18340;SDS011;9296;48.084;16.352;2022-07-29T11:57:55;7.63;;;5.50;;
18340;SDS011;9296;48.084;16.352;2022-07-29T12:00:28;6.32;;;5.20;;
18340;SDS011;9296;48.084;16.352;2022-07-29T12:02:57;6.40;;;5.10;;
18340;SDS011;9296;48.084;16.352;2022-07-29T12:05:32;8.27;;;5.20;;
18340;SDS011;9296;48.084;16.352;2022-07-29T12:08:05;7.93;;;5.15;;
18340;SDS011;9296;48.084;16.352;2022-07-29T12:10:37;9.07;;;5.20;;
18340;SDS011;9296;48.084;16.352;2022-07-29T12:13:05;7.47;;;5.18;;
18340;SDS011;9296;48.084;16.352;2022-07-29T12:15:33;7.35;;;5.28;;
18340;SDS011;9296;48.084;16.352;2022-07-29T12:18:09;6.60;;;5.50;;
18340;SDS011;9296;48.084;16.352;2022-07-29T12:20:37;6.57;;;5.27;;
18340;SDS011;9296;48.084;16.352;2022-07-29T12:23:22;6.97;;;5.30;;
18340;SDS011;9296;48.084;16.352;2022-07-29T12:25:49;7.28;;;4.88;;
18340;SDS011;9296;48.084;16.352;2022-07-29T12:28:18;6.57;;;5.05;;
18340;SDS011;9296;48.084;16.352;2022-07-29T12:30:47;7.57;;;5.43;;
18340;SDS011;9296;48.084;16.352;2022-07-29T12:33:19;5.93;;;5.30;;
18340;SDS011;9296;48.084;16.352;2022-07-29T12:35:48;6.18;;;4.93;;
18340;SDS011;9296;48.084;16.352;2022-07-29T12:38:18;9.90;;;8.83;;
18340;SDS011;9296;48.084;16.352;2022-07-29T12:40:45;6.50;;;5.50;;
18340;SDS011;9296;48.084;16.352;2022-07-29T12:43:13;7.57;;;5.47;;
18340;SDS011;9296;48.084;16.352;2022-07-29T12:45:43;6.35;;;5.10;;
18340;SDS011;9296;48.084;16.352;2022-07-29T12:48:12;5.80;;;5.10;;
18340;SDS011;9296;48.084;16.352;2022-07-29T12:50:55;6.68;;;5.20;;
18340;SDS011;9296;48.084;16.352;2022-07-29T12:53:23;5.97;;;5.35;;
18340;SDS011;9296;48.084;16.352;2022-07-29T12:55:52;8.40;;;5.25;;
18340;SDS011;9296;48.084;16.352;2022-07-29T12:58:26;5.82;;;4.80;;
18340;SDS011;9296;48.084;16.352;2022-07-29T13:01:03;8.05;;;6.13;;
18340;SDS011;9296;48.084;16.352;2022-07-29T13:03:44;9.25;;;5.13;;
18340;SDS011;9296;48.084;16.352;2022-07-29T13:06:30;7.65;;;5.00;;
18340;SDS011;9296;48.084;16.352;2022-07-29T13:11:45;6.43;;;4.93;;
18340;SDS011;9296;48.084;16.352;2022-07-29T13:14:13;9.00;;;5.15;;
18340;SDS011;9296;48.084;16.352;2022-07-29T13:19:31;5.78;;;5.00;;
18340;SDS011;9296;48.084;16.352;2022-07-29T13:21:59;9.38;;;5.55;;
18340;SDS011;9296;48.084;16.352;2022-07-29T13:24:27;6.83;;;5.00;;
18340;SDS011;9296;48.084;16.352;2022-07-29T13:26:54;7.25;;;6.03;;
18340;SDS011;9296;48.084;16.352;2022-07-29T13:29:21;8.05;;;5.35;;
18340;SDS011;9296;48.084;16.352;2022-07-29T13:31:48;8.07;;;5.30;;
18340;SDS011;9296;48.084;16.352;2022-07-29T13:34:15;9.55;;;8.23;;
18340;SDS011;9296;48.084;16.352;2022-07-29T13:36:46;5.60;;;5.10;;
18340;SDS011;9296;48.084;16.352;2022-07-29T13:42:16;6.25;;;4.90;;
18340;SDS011;9296;48.084;16.352;2022-07-29T13:44:43;5.78;;;5.13;;
18340;SDS011;9296;48.084;16.352;2022-07-29T13:47:11;7.22;;;5.25;;
18340;SDS011;9296;48.084;16.352;2022-07-29T13:49:38;6.10;;;5.10;;
18340;SDS011;9296;48.084;16.352;2022-07-29T14:08:02;7.55;;;5.15;;
18340;SDS011;9296;48.084;16.352;2022-07-29T14:10:29;7.55;;;6.13;;
18340;SDS011;9296;48.084;16.352;2022-07-29T14:12:56;6.90;;;5.80;;
18340;SDS011;9296;48.084;16.352;2022-07-29T14:15:23;7.75;;;6.43;;
18340;SDS011;9296;48.084;16.352;2022-07-29T14:17:51;9.32;;;6.18;;
18340;SDS011;9296;48.084;16.352;2022-07-29T14:20:18;6.72;;;6.10;;
18340;SDS011;9296;48.084;16.352;2022-07-29T14:22:45;8.88;;;6.57;;
18340;SDS011;9296;48.084;16.352;2022-07-29T14:25:14;9.60;;;7.07;;
18340;SDS011;9296;48.084;16.352;2022-07-29T14:27:41;9.15;;;6.97;;
18340;SDS011;9296;48.084;16.352;2022-07-29T14:30:09;9.18;;;7.60;;
18340;SDS011;9296;48.084;16.352;2022-07-29T14:32:36;9.05;;;7.70;;
18340;SDS011;9296;48.084;16.352;2022-07-29T14:35:04;9.77;;;7.50;;
18340;SDS011;9296;48.084;16.352;2022-07-29T14:40:36;8.90;;;7.85;;
18340;SDS011;9296;48.084;16.352;2022-07-29T14:43:04;10.07;;;8.15;;
18340;SDS011;9296;48.084;16.352;2022-07-29T14:45:31;10.50;;;8.55;;
18340;SDS011;9296;48.084;16.352;2022-07-29T14:47:58;10.15;;;8.20;;
18340;SDS011;9296;48.084;16.352;2022-07-29T14:50:25;9.60;;;8.15;;
18340;SDS011;9296;48.084;16.352;2022-07-29T14:55:58;10.47;;;9.47;;
18340;SDS011;9296;48.084;16.352;2022-07-29T14:58:25;9.88;;;8.98;;
18340;SDS011;9296;48.084;16.352;2022-07-29T15:00:52;9.70;;;8.80;;
18340;SDS011;9296;48.084;16.352;2022-07-29T15:03:21;10.02;;;8.88;;
18340;SDS011;9296;48.084;16.352;2022-07-29T15:05:48;10.95;;;9.45;;
18340;SDS011;9296;48.084;16.352;2022-07-29T15:11:21;9.90;;;8.05;;
18340;SDS011;9296;48.084;16.352;2022-07-29T15:13:48;11.35;;;7.57;;
18340;SDS011;9296;48.084;16.352;2022-07-29T15:16:16;8.80;;;7.90;;
18340;SDS011;9296;48.084;16.352;2022-07-29T15:18:43;10.13;;;8.00;;
18340;SDS011;9296;48.084;16.352;2022-07-29T15:21:10;8.27;;;7.47;;
18340;SDS011;9296;48.084;16.352;2022-07-29T15:26:43;8.38;;;7.15;;
18340;SDS011;9296;48.084;16.352;2022-07-29T15:29:10;8.03;;;7.30;;
18340;SDS011;9296;48.084;16.352;2022-07-29T15:31:38;8.38;;;7.50;;
18340;SDS011;9296;48.084;16.352;2022-07-29T15:34:05;8.60;;;7.70;;
18340;SDS011;9296;48.084;16.352;2022-07-29T15:36:32;8.30;;;7.50;;
18340;SDS011;9296;48.084;16.352;2022-07-29T15:39:00;8.48;;;7.55;;
18340;SDS011;9296;48.084;16.352;2022-07-29T15:41:27;8.25;;;7.45;;
18340;SDS011;9296;48.084;16.352;2022-07-29T15:43:56;8.32;;;7.35;;
18340;SDS011;9296;48.084;16.352;2022-07-29T15:46:23;8.07;;;7.35;;
18340;SDS011;9296;48.084;16.352;2022-07-29T15:49:07;7.93;;;7.10;;
18340;SDS011;9296;48.084;16.352;2022-07-29T15:51:35;8.48;;;7.43;;
18340;SDS011;9296;48.084;16.352;2022-07-29T15:57:06;8.53;;;7.70;;
18340;SDS011;9296;48.084;16.352;2022-07-29T15:59:34;8.38;;;7.57;;
18340;SDS011;9296;48.084;16.352;2022-07-29T16:02:02;9.32;;;8.25;;
18340;SDS011;9296;48.084;16.352;2022-07-29T16:04:29;8.95;;;8.05;;
18340;SDS011;9296;48.084;16.352;2022-07-29T16:06:56;8.88;;;7.47;;
18340;SDS011;9296;48.084;16.352;2022-07-29T16:12:27;8.77;;;7.35;;
18340;SDS011;9296;48.084;16.352;2022-07-29T16:14:56;7.90;;;7.20;;
18340;SDS011;9296;48.084;16.352;2022-07-29T16:17:23;8.50;;;7.63;;
18340;SDS011;9296;48.084;16.352;2022-07-29T16:19:51;8.43;;;7.30;;
18340;SDS011;9296;48.084;16.352;2022-07-29T16:22:18;8.10;;;7.30;;
18340;SDS011;9296;48.084;16.352;2022-07-29T16:24:46;8.63;;;7.63;;
18340;SDS011;9296;48.084;16.352;2022-07-29T16:27:13;8.13;;;7.20;;
18340;SDS011;9296;48.084;16.352;2022-07-29T16:29:40;8.20;;;7.50;;
18340;SDS011;9296;48.084;16.352;2022-07-29T16:32:09;9.63;;;8.10;;
18340;SDS011;9296;48.084;16.352;2022-07-29T16:34:36;9.32;;;7.68;;
18340;SDS011;9296;48.084;16.352;2022-07-29T16:37:03;7.97;;;7.20;;
18340;SDS011;9296;48.084;16.352;2022-07-29T16:39:49;7.40;;;6.55;;
18340;SDS011;9296;48.084;16.352;2022-07-29T16:42:16;7.20;;;6.50;;
18340;SDS011;9296;48.084;16.352;2022-07-29T16:44:43;7.43;;;6.55;;
18340;SDS011;9296;48.084;16.352;2022-07-29T16:47:12;7.03;;;6.43;;
18340;SDS011;9296;48.084;16.352;2022-07-29T16:49:39;7.55;;;6.75;;
18340;SDS011;9296;48.084;16.352;2022-07-29T16:52:06;10.38;;;9.27;;
18340;SDS011;9296;48.084;16.352;2022-07-29T16:57:37;8.20;;;7.40;;
18340;SDS011;9296;48.084;16.352;2022-07-29T17:00:06;8.23;;;7.40;;
18340;SDS011;9296;48.084;16.352;2022-07-29T17:02:35;8.03;;;7.20;;
18340;SDS011;9296;48.084;16.352;2022-07-29T17:05:03;7.97;;;6.55;;
18340;SDS011;9296;48.084;16.352;2022-07-29T17:07:30;10.32;;;8.35;;
18340;SDS011;9296;48.084;16.352;2022-07-29T17:12:44;13.23;;;10.30;;
18340;SDS011;9296;48.084;16.352;2022-07-29T17:15:12;10.95;;;9.85;;
18340;SDS011;9296;48.084;16.352;2022-07-29T17:17:42;10.50;;;9.50;;
18340;SDS011;9296;48.084;16.352;2022-07-29T17:20:09;10.82;;;9.10;;
18340;SDS011;9296;48.084;16.352;2022-07-29T17:22:37;10.43;;;9.43;;
18340;SDS011;9296;48.084;16.352;2022-07-29T17:25:05;10.18;;;9.18;;
18340;SDS011;9296;48.084;16.352;2022-07-29T17:27:32;10.88;;;9.80;;
18340;SDS011;9296;48.084;16.352;2022-07-29T17:30:00;12.07;;;9.50;;
18340;SDS011;9296;48.084;16.352;2022-07-29T17:32:28;10.60;;;9.60;;
18340;SDS011;9296;48.084;16.352;2022-07-29T17:35:01;12.32;;;10.43;;
18340;SDS011;9296;48.084;16.352;2022-07-29T17:37:49;11.35;;;10.15;;
18340;SDS011;9296;48.084;16.352;2022-07-29T17:40:16;10.90;;;9.53;;
18340;SDS011;9296;48.084;16.352;2022-07-29T17:42:43;11.52;;;10.23;;
18340;SDS011;9296;48.084;16.352;2022-07-29T17:45:10;11.07;;;9.90;;
18340;SDS011;9296;48.084;16.352;2022-07-29T17:47:37;12.85;;;10.38;;
18340;SDS011;9296;48.084;16.352;2022-07-29T17:50:07;12.70;;;11.50;;
18340;SDS011;9296;48.084;16.352;2022-07-29T17:52:34;13.02;;;11.30;;